sensor_id;sensor_type;location;lat;lon;timestamp;P1;durP1;ratioP1;P2;durP2;ratioP2
19257;SDS011;9763;48.780;9.212;2023-05-19T00:00:38;1.60;;;1.30;;
19257;SDS011;9763;48.780;9.212;2023-05-19T00:04:10;2.00;;;1.50;;
19257;SDS011;9763;48.780;9.212;2023-05-19T00:07:37;4.33;;;1.20;;
19257;SDS011;9763;48.780;9.212;2023-05-19T00:11:02;2.43;;;1.50;;
19257;SDS011;9763;48.780;9.212;2023-05-19T00:14:28;3.90;;;2.00;;
19257;SDS011;9763;48.780;9.212;2023-05-19T00:17:55;2.23;;;1.13;;
19257;SDS011;9763;48.780;9.212;2023-05-19T00:21:20;2.10;;;1.20;;
19257;SDS011;9763;48.780;9.212;2023-05-19T00:24:46;2.73;;;1.40;;
19257;SDS011;9763;48.780;9.212;2023-05-19T00:28:10;2.80;;;1.53;;
19257;SDS011;9763;48.780;9.212;2023-05-19T00:31:35;1.90;;;1.33;;
19257;SDS011;9763;48.780;9.212;2023-05-19T00:35:00;2.27;;;1.50;;
19257;SDS011;9763;48.780;9.212;2023-05-19T00:38:24;1.80;;;1.37;;
19257;SDS011;9763;48.780;9.212;2023-05-19T00:41:47;1.90;;;1.27;;
19257;SDS011;9763;48.780;9.212;2023-05-19T00:45:11;2.40;;;1.20;;
19257;SDS011;9763;48.780;9.212;2023-05-19T00:48:34;1.60;;;1.03;;
19257;SDS011;9763;48.780;9.212;2023-05-19T00:51:59;2.00;;;1.23;;
19257;SDS011;9763;48.780;9.212;2023-05-19T00:55:25;2.87;;;1.50;;
19257;SDS011;9763;48.780;9.212;2023-05-19T00:58:52;3.97;;;1.13;;
19257;SDS011;9763;48.780;9.212;2023-05-19T01:02:17;2.60;;;1.43;;
19257;SDS011;9763;48.780;9.212;2023-05-19T01:05:40;2.90;;;1.40;;
19257;SDS011;9763;48.780;9.212;2023-05-19T01:09:06;1.60;;;1.03;;
19257;SDS011;9763;48.780;9.212;2023-05-19T01:12:30;1.60;;;1.20;;
19257;SDS011;9763;48.780;9.212;2023-05-19T01:15:57;1.73;;;0.90;;
19257;SDS011;9763;48.780;9.212;2023-05-19T01:19:31;5.23;;;1.00;;
19257;SDS011;9763;48.780;9.212;2023-05-19T01:23:19;2.63;;;1.10;;
19257;SDS011;9763;48.780;9.212;2023-05-19T01:27:04;1.83;;;1.00;;
19257;SDS011;9763;48.780;9.212;2023-05-19T01:30:53;1.77;;;1.20;;
19257;SDS011;9763;48.780;9.212;2023-05-19T01:34:20;1.60;;;1.10;;
19257;SDS011;9763;48.780;9.212;2023-05-19T01:37:45;1.80;;;1.03;;
19257;SDS011;9763;48.780;9.212;2023-05-19T01:41:11;3.13;;;1.00;;
19257;SDS011;9763;48.780;9.212;2023-05-19T01:44:36;5.10;;;1.23;;
19257;SDS011;9763;48.780;9.212;2023-05-19T01:48:02;1.70;;;1.10;;
19257;SDS011;9763;48.780;9.212;2023-05-19T01:51:32;2.07;;;1.10;;
19257;SDS011;9763;48.780;9.212;2023-05-19T01:54:56;1.67;;;1.13;;
19257;SDS011;9763;48.780;9.212;2023-05-19T01:58:21;1.60;;;1.00;;
19257;SDS011;9763;48.780;9.212;2023-05-19T02:01:56;1.90;;;1.37;;
19257;SDS011;9763;48.780;9.212;2023-05-19T02:05:28;3.10;;;1.40;;
19257;SDS011;9763;48.780;9.212;2023-05-19T02:09:01;1.57;;;1.00;;
19257;SDS011;9763;48.780;9.212;2023-05-19T02:12:34;2.70;;;1.50;;
19257;SDS011;9763;48.780;9.212;2023-05-19T02:16:02;1.60;;;1.00;;
19257;SDS011;9763;48.780;9.212;2023-05-19T02:19:29;1.43;;;0.97;;
19257;SDS011;9763;48.780;9.212;2023-05-19T02:22:57;1.60;;;1.20;;
19257;SDS011;9763;48.780;9.212;2023-05-19T02:26:20;1.50;;;1.30;;
19257;SDS011;9763;48.780;9.212;2023-05-19T02:29:44;1.90;;;1.30;;
19257;SDS011;9763;48.780;9.212;2023-05-19T02:33:08;1.43;;;1.00;;
19257;SDS011;9763;48.780;9.212;2023-05-19T02:36:33;2.40;;;1.27;;
19257;SDS011;9763;48.780;9.212;2023-05-19T02:39:59;1.50;;;1.20;;
19257;SDS011;9763;48.780;9.212;2023-05-19T02:43:24;2.80;;;1.33;;
19257;SDS011;9763;48.780;9.212;2023-05-19T02:46:47;1.70;;;1.20;;
19257;SDS011;9763;48.780;9.212;2023-05-19T02:50:11;2.10;;;1.30;;
19257;SDS011;9763;48.780;9.212;2023-05-19T02:53:35;2.10;;;1.30;;
19257;SDS011;9763;48.780;9.212;2023-05-19T02:57:00;1.60;;;1.10;;
19257;SDS011;9763;48.780;9.212;2023-05-19T03:00:24;2.33;;;1.10;;
19257;SDS011;9763;48.780;9.212;2023-05-19T03:03:47;1.40;;;1.20;;
19257;SDS011;9763;48.780;9.212;2023-05-19T03:07:11;2.50;;;1.10;;
19257;SDS011;9763;48.780;9.212;2023-05-19T03:10:36;2.57;;;0.97;;
19257;SDS011;9763;48.780;9.212;2023-05-19T03:14:01;1.50;;;1.10;;
19257;SDS011;9763;48.780;9.212;2023-05-19T03:17:24;1.30;;;1.00;;
19257;SDS011;9763;48.780;9.212;2023-05-19T03:20:49;2.87;;;1.40;;
19257;SDS011;9763;48.780;9.212;2023-05-19T03:24:14;1.70;;;0.90;;
19257;SDS011;9763;48.780;9.212;2023-05-19T03:27:38;2.03;;;1.00;;
19257;SDS011;9763;48.780;9.212;2023-05-19T03:31:03;2.13;;;1.30;;
19257;SDS011;9763;48.780;9.212;2023-05-19T03:34:31;1.60;;;1.10;;
19257;SDS011;9763;48.780;9.212;2023-05-19T03:37:56;1.40;;;1.00;;
19257;SDS011;9763;48.780;9.212;2023-05-19T03:41:19;1.67;;;1.00;;
19257;SDS011;9763;48.780;9.212;2023-05-19T03:44:43;1.40;;;1.07;;
19257;SDS011;9763;48.780;9.212;2023-05-19T03:48:08;2.43;;;1.30;;
19257;SDS011;9763;48.780;9.212;2023-05-19T03:51:52;2.47;;;1.20;;
19257;SDS011;9763;48.780;9.212;2023-05-19T03:55:31;1.60;;;1.10;;
19257;SDS011;9763;48.780;9.212;2023-05-19T03:58:55;1.40;;;1.10;;
19257;SDS011;9763;48.780;9.212;2023-05-19T04:02:18;2.53;;;1.10;;
19257;SDS011;9763;48.780;9.212;2023-05-19T04:05:43;2.10;;;1.20;;
19257;SDS011;9763;48.780;9.212;2023-05-19T04:09:10;2.73;;;1.10;;
19257;SDS011;9763;48.780;9.212;2023-05-19T04:12:35;1.87;;;1.20;;
19257;SDS011;9763;48.780;9.212;2023-05-19T04:15:59;3.07;;;1.63;;
19257;SDS011;9763;48.780;9.212;2023-05-19T04:19:23;1.50;;;1.27;;
19257;SDS011;9763;48.780;9.212;2023-05-19T04:22:50;1.70;;;1.10;;
19257;SDS011;9763;48.780;9.212;2023-05-19T04:26:14;2.27;;;1.20;;
19257;SDS011;9763;48.780;9.212;2023-05-19T04:29:38;1.90;;;1.17;;
19257;SDS011;9763;48.780;9.212;2023-05-19T04:33:02;2.43;;;1.40;;
19257;SDS011;9763;48.780;9.212;2023-05-19T04:36:26;1.40;;;1.00;;
19257;SDS011;9763;48.780;9.212;2023-05-19T04:39:51;1.40;;;1.10;;
19257;SDS011;9763;48.780;9.212;2023-05-19T04:43:18;2.70;;;1.40;;
19257;SDS011;9763;48.780;9.212;2023-05-19T04:46:43;1.47;;;1.20;;
19257;SDS011;9763;48.780;9.212;2023-05-19T04:50:08;2.90;;;1.30;;
19257;SDS011;9763;48.780;9.212;2023-05-19T04:53:33;1.67;;;1.13;;
19257;SDS011;9763;48.780;9.212;2023-05-19T04:57:00;1.43;;;1.00;;
19257;SDS011;9763;48.780;9.212;2023-05-19T05:00:26;1.70;;;1.10;;
19257;SDS011;9763;48.780;9.212;2023-05-19T05:03:56;3.10;;;1.10;;
19257;SDS011;9763;48.780;9.212;2023-05-19T05:07:23;2.13;;;1.17;;
19257;SDS011;9763;48.780;9.212;2023-05-19T05:10:48;2.70;;;1.53;;
19257;SDS011;9763;48.780;9.212;2023-05-19T05:14:14;2.63;;;1.13;;
19257;SDS011;9763;48.780;9.212;2023-05-19T05:17:40;2.93;;;1.50;;
19257;SDS011;9763;48.780;9.212;2023-05-19T05:21:05;3.00;;;1.00;;
19257;SDS011;9763;48.780;9.212;2023-05-19T05:24:30;3.03;;;1.30;;
19257;SDS011;9763;48.780;9.212;2023-05-19T05:27:57;1.70;;;1.17;;
19257;SDS011;9763;48.780;9.212;2023-05-19T05:31:27;1.70;;;1.30;;
19257;SDS011;9763;48.780;9.212;2023-05-19T05:34:52;1.60;;;1.10;;
19257;SDS011;9763;48.780;9.212;2023-05-19T05:38:16;1.70;;;1.20;;
19257;SDS011;9763;48.780;9.212;2023-05-19T05:41:39;2.30;;;1.30;;
19257;SDS011;9763;48.780;9.212;2023-05-19T05:45:06;3.63;;;1.40;;
19257;SDS011;9763;48.780;9.212;2023-05-19T05:48:32;2.80;;;1.10;;
19257;SDS011;9763;48.780;9.212;2023-05-19T05:51:58;2.23;;;1.40;;
19257;SDS011;9763;48.780;9.212;2023-05-19T05:55:34;2.40;;;1.40;;
19257;SDS011;9763;48.780;9.212;2023-05-19T05:59:00;2.77;;;1.40;;
19257;SDS011;9763;48.780;9.212;2023-05-19T06:02:25;2.13;;;1.10;;
19257;SDS011;9763;48.780;9.212;2023-05-19T06:05:52;1.50;;;1.00;;
19257;SDS011;9763;48.780;9.212;2023-05-19T06:09:17;3.70;;;1.43;;
19257;SDS011;9763;48.780;9.212;2023-05-19T06:12:41;2.17;;;1.70;;
19257;SDS011;9763;48.780;9.212;2023-05-19T06:16:05;2.50;;;1.50;;
19257;SDS011;9763;48.780;9.212;2023-05-19T06:19:34;3.07;;;1.30;;
19257;SDS011;9763;48.780;9.212;2023-05-19T06:22:59;2.57;;;1.50;;
19257;SDS011;9763;48.780;9.212;2023-05-19T06:26:23;1.97;;;1.30;;
19257;SDS011;9763;48.780;9.212;2023-05-19T06:29:48;2.00;;;1.27;;
19257;SDS011;9763;48.780;9.212;2023-05-19T06:33:12;3.77;;;1.70;;
19257;SDS011;9763;48.780;9.212;2023-05-19T06:36:36;2.03;;;1.40;;
19257;SDS011;9763;48.780;9.212;2023-05-19T06:40:03;2.20;;;1.40;;
19257;SDS011;9763;48.780;9.212;2023-05-19T06:43:30;8.00;;;1.40;;
19257;SDS011;9763;48.780;9.212;2023-05-19T06:46:58;2.43;;;1.40;;
19257;SDS011;9763;48.780;9.212;2023-05-19T06:50:21;3.00;;;1.37;;
19257;SDS011;9763;48.780;9.212;2023-05-19T06:53:46;4.30;;;1.53;;
19257;SDS011;9763;48.780;9.212;2023-05-19T06:57:11;1.80;;;1.30;;
19257;SDS011;9763;48.780;9.212;2023-05-19T07:00:34;2.53;;;1.57;;
19257;SDS011;9763;48.780;9.212;2023-05-19T07:04:00;2.77;;;1.63;;
19257;SDS011;9763;48.780;9.212;2023-05-19T07:07:24;2.13;;;1.40;;
19257;SDS011;9763;48.780;9.212;2023-05-19T07:10:49;2.90;;;1.60;;
19257;SDS011;9763;48.780;9.212;2023-05-19T07:14:14;2.67;;;1.63;;
19257;SDS011;9763;48.780;9.212;2023-05-19T07:17:38;4.13;;;1.47;;
19257;SDS011;9763;48.780;9.212;2023-05-19T07:21:02;2.10;;;1.60;;
19257;SDS011;9763;48.780;9.212;2023-05-19T07:24:28;4.77;;;1.40;;
19257;SDS011;9763;48.780;9.212;2023-05-19T07:27:52;2.30;;;1.40;;
19257;SDS011;9763;48.780;9.212;2023-05-19T07:31:17;2.57;;;1.53;;
19257;SDS011;9763;48.780;9.212;2023-05-19T07:34:40;2.03;;;1.30;;
19257;SDS011;9763;48.780;9.212;2023-05-19T07:38:04;2.90;;;1.50;;
19257;SDS011;9763;48.780;9.212;2023-05-19T07:41:29;3.73;;;1.73;;
19257;SDS011;9763;48.780;9.212;2023-05-19T07:44:54;2.37;;;1.63;;
19257;SDS011;9763;48.780;9.212;2023-05-19T07:48:19;2.40;;;1.47;;
19257;SDS011;9763;48.780;9.212;2023-05-19T07:51:45;1.93;;;1.40;;
19257;SDS011;9763;48.780;9.212;2023-05-19T07:55:08;2.13;;;1.40;;
19257;SDS011;9763;48.780;9.212;2023-05-19T07:58:32;1.70;;;1.30;;
19257;SDS011;9763;48.780;9.212;2023-05-19T08:01:56;1.83;;;1.27;;
19257;SDS011;9763;48.780;9.212;2023-05-19T08:05:21;3.30;;;1.40;;
19257;SDS011;9763;48.780;9.212;2023-05-19T08:08:46;2.47;;;1.50;;
19257;SDS011;9763;48.780;9.212;2023-05-19T08:12:09;1.83;;;1.27;;
19257;SDS011;9763;48.780;9.212;2023-05-19T08:15:33;1.77;;;1.10;;
19257;SDS011;9763;48.780;9.212;2023-05-19T08:18:57;2.07;;;1.60;;
19257;SDS011;9763;48.780;9.212;2023-05-19T08:22:24;2.20;;;1.37;;
19257;SDS011;9763;48.780;9.212;2023-05-19T08:25:49;2.27;;;1.60;;
19257;SDS011;9763;48.780;9.212;2023-05-19T08:29:13;2.60;;;1.43;;
19257;SDS011;9763;48.780;9.212;2023-05-19T08:32:36;2.33;;;1.40;;
19257;SDS011;9763;48.780;9.212;2023-05-19T08:36:00;2.67;;;1.33;;
19257;SDS011;9763;48.780;9.212;2023-05-19T08:39:25;5.37;;;1.67;;
19257;SDS011;9763;48.780;9.212;2023-05-19T08:42:49;3.10;;;1.40;;
19257;SDS011;9763;48.780;9.212;2023-05-19T08:46:12;2.27;;;1.17;;
19257;SDS011;9763;48.780;9.212;2023-05-19T08:49:41;1.90;;;1.40;;
19257;SDS011;9763;48.780;9.212;2023-05-19T08:53:09;1.70;;;1.40;;
19257;SDS011;9763;48.780;9.212;2023-05-19T08:56:56;2.40;;;1.60;;
19257;SDS011;9763;48.780;9.212;2023-05-19T09:00:20;1.90;;;1.43;;
19257;SDS011;9763;48.780;9.212;2023-05-19T09:03:45;2.80;;;1.30;;
19257;SDS011;9763;48.780;9.212;2023-05-19T09:07:11;1.90;;;1.20;;
19257;SDS011;9763;48.780;9.212;2023-05-19T09:10:36;1.73;;;1.33;;
19257;SDS011;9763;48.780;9.212;2023-05-19T09:14:01;2.00;;;1.20;;
19257;SDS011;9763;48.780;9.212;2023-05-19T09:17:25;2.00;;;1.40;;
19257;SDS011;9763;48.780;9.212;2023-05-19T09:20:49;2.47;;;1.30;;
19257;SDS011;9763;48.780;9.212;2023-05-19T09:24:12;1.97;;;1.60;;
19257;SDS011;9763;48.780;9.212;2023-05-19T09:27:36;1.77;;;1.30;;
19257;SDS011;9763;48.780;9.212;2023-05-19T09:31:03;2.53;;;1.53;;
19257;SDS011;9763;48.780;9.212;2023-05-19T09:34:28;2.30;;;1.40;;
19257;SDS011;9763;48.780;9.212;2023-05-19T09:37:52;1.60;;;1.07;;
19257;SDS011;9763;48.780;9.212;2023-05-19T09:41:16;1.97;;;1.50;;
19257;SDS011;9763;48.780;9.212;2023-05-19T09:44:40;1.90;;;1.33;;
19257;SDS011;9763;48.780;9.212;2023-05-19T09:48:07;1.63;;;1.37;;
19257;SDS011;9763;48.780;9.212;2023-05-19T09:51:30;1.90;;;1.60;;
19257;SDS011;9763;48.780;9.212;2023-05-19T09:54:55;1.77;;;1.27;;
19257;SDS011;9763;48.780;9.212;2023-05-19T09:58:19;1.70;;;1.37;;
19257;SDS011;9763;48.780;9.212;2023-05-19T10:01:43;2.30;;;1.43;;
19257;SDS011;9763;48.780;9.212;2023-05-19T10:05:11;2.60;;;1.60;;
19257;SDS011;9763;48.780;9.212;2023-05-19T10:08:38;2.97;;;1.43;;
19257;SDS011;9763;48.780;9.212;2023-05-19T10:12:03;2.63;;;1.53;;
19257;SDS011;9763;48.780;9.212;2023-05-19T10:15:29;1.60;;;1.13;;
19257;SDS011;9763;48.780;9.212;2023-05-19T10:19:07;2.67;;;1.37;;
19257;SDS011;9763;48.780;9.212;2023-05-19T10:22:34;1.83;;;1.20;;
19257;SDS011;9763;48.780;9.212;2023-05-19T10:25:58;3.33;;;1.57;;
19257;SDS011;9763;48.780;9.212;2023-05-19T10:29:26;1.83;;;1.13;;
19257;SDS011;9763;48.780;9.212;2023-05-19T10:32:53;2.40;;;1.40;;
19257;SDS011;9763;48.780;9.212;2023-05-19T10:36:24;1.80;;;1.47;;
19257;SDS011;9763;48.780;9.212;2023-05-19T10:40:09;2.57;;;1.33;;
19257;SDS011;9763;48.780;9.212;2023-05-19T10:43:43;1.70;;;1.33;;
19257;SDS011;9763;48.780;9.212;2023-05-19T10:47:21;2.30;;;1.47;;
19257;SDS011;9763;48.780;9.212;2023-05-19T10:50:46;2.20;;;1.20;;
19257;SDS011;9763;48.780;9.212;2023-05-19T10:54:10;1.60;;;1.10;;
19257;SDS011;9763;48.780;9.212;2023-05-19T10:57:37;2.83;;;1.63;;
19257;SDS011;9763;48.780;9.212;2023-05-19T11:01:17;2.17;;;1.40;;
19257;SDS011;9763;48.780;9.212;2023-05-19T11:04:46;2.00;;;1.30;;
19257;SDS011;9763;48.780;9.212;2023-05-19T11:08:12;2.00;;;1.20;;
19257;SDS011;9763;48.780;9.212;2023-05-19T11:11:46;1.97;;;1.30;;
19257;SDS011;9763;48.780;9.212;2023-05-19T11:15:13;2.93;;;1.33;;
19257;SDS011;9763;48.780;9.212;2023-05-19T11:18:37;2.17;;;1.40;;
19257;SDS011;9763;48.780;9.212;2023-05-19T11:22:08;2.50;;;1.60;;
19257;SDS011;9763;48.780;9.212;2023-05-19T11:25:40;1.97;;;1.27;;
19257;SDS011;9763;48.780;9.212;2023-05-19T11:29:05;2.40;;;1.47;;
19257;SDS011;9763;48.780;9.212;2023-05-19T11:32:32;2.60;;;1.60;;
19257;SDS011;9763;48.780;9.212;2023-05-19T11:35:59;3.97;;;1.33;;
19257;SDS011;9763;48.780;9.212;2023-05-19T11:39:24;1.97;;;1.30;;
19257;SDS011;9763;48.780;9.212;2023-05-19T11:42:49;1.93;;;1.40;;
19257;SDS011;9763;48.780;9.212;2023-05-19T11:46:13;1.73;;;1.30;;
19257;SDS011;9763;48.780;9.212;2023-05-19T11:49:38;2.63;;;1.30;;
19257;SDS011;9763;48.780;9.212;2023-05-19T11:53:06;2.67;;;1.43;;
19257;SDS011;9763;48.780;9.212;2023-05-19T11:56:33;1.87;;;1.20;;
19257;SDS011;9763;48.780;9.212;2023-05-19T12:00:01;1.70;;;1.40;;
19257;SDS011;9763;48.780;9.212;2023-05-19T12:03:30;3.10;;;1.30;;
19257;SDS011;9763;48.780;9.212;2023-05-19T12:06:55;2.30;;;1.37;;
19257;SDS011;9763;48.780;9.212;2023-05-19T12:10:20;1.80;;;1.20;;
19257;SDS011;9763;48.780;9.212;2023-05-19T12:13:45;2.10;;;1.30;;
19257;SDS011;9763;48.780;9.212;2023-05-19T12:17:12;2.00;;;1.47;;
19257;SDS011;9763;48.780;9.212;2023-05-19T12:20:39;1.63;;;1.40;;
19257;SDS011;9763;48.780;9.212;2023-05-19T12:24:05;1.70;;;1.20;;
19257;SDS011;9763;48.780;9.212;2023-05-19T12:27:29;3.77;;;1.43;;
19257;SDS011;9763;48.780;9.212;2023-05-19T12:30:58;2.27;;;1.30;;
19257;SDS011;9763;48.780;9.212;2023-05-19T12:34:24;3.10;;;1.47;;
19257;SDS011;9763;48.780;9.212;2023-05-19T12:37:48;2.73;;;1.50;;
19257;SDS011;9763;48.780;9.212;2023-05-19T12:41:13;4.07;;;1.40;;
19257;SDS011;9763;48.780;9.212;2023-05-19T12:44:37;1.87;;;1.27;;
19257;SDS011;9763;48.780;9.212;2023-05-19T12:48:10;1.63;;;1.30;;
19257;SDS011;9763;48.780;9.212;2023-05-19T12:51:36;2.93;;;1.47;;
19257;SDS011;9763;48.780;9.212;2023-05-19T12:55:01;2.03;;;1.30;;
19257;SDS011;9763;48.780;9.212;2023-05-19T12:58:32;1.67;;;1.40;;
19257;SDS011;9763;48.780;9.212;2023-05-19T13:01:56;2.30;;;1.40;;
19257;SDS011;9763;48.780;9.212;2023-05-19T13:05:20;1.90;;;1.47;;
19257;SDS011;9763;48.780;9.212;2023-05-19T13:08:44;3.50;;;1.40;;
19257;SDS011;9763;48.780;9.212;2023-05-19T13:12:09;2.40;;;1.43;;
19257;SDS011;9763;48.780;9.212;2023-05-19T13:15:35;2.80;;;1.27;;
19257;SDS011;9763;48.780;9.212;2023-05-19T13:19:01;1.80;;;1.20;;
19257;SDS011;9763;48.780;9.212;2023-05-19T13:22:27;3.03;;;1.50;;
19257;SDS011;9763;48.780;9.212;2023-05-19T13:25:50;1.60;;;1.40;;
19257;SDS011;9763;48.780;9.212;2023-05-19T13:29:14;1.43;;;1.13;;
19257;SDS011;9763;48.780;9.212;2023-05-19T13:32:39;2.07;;;1.30;;
19257;SDS011;9763;48.780;9.212;2023-05-19T13:36:04;5.60;;;1.47;;
19257;SDS011;9763;48.780;9.212;2023-05-19T13:39:28;2.20;;;1.40;;
19257;SDS011;9763;48.780;9.212;2023-05-19T13:42:52;3.27;;;1.40;;
19257;SDS011;9763;48.780;9.212;2023-05-19T13:46:15;2.90;;;1.70;;
19257;SDS011;9763;48.780;9.212;2023-05-19T13:49:48;3.03;;;1.70;;
19257;SDS011;9763;48.780;9.212;2023-05-19T13:53:12;2.10;;;1.27;;
19257;SDS011;9763;48.780;9.212;2023-05-19T13:56:36;2.70;;;1.50;;
19257;SDS011;9763;48.780;9.212;2023-05-19T14:00:01;1.70;;;1.27;;
19257;SDS011;9763;48.780;9.212;2023-05-19T14:03:35;3.03;;;1.30;;
19257;SDS011;9763;48.780;9.212;2023-05-19T14:07:00;1.30;;;0.93;;
19257;SDS011;9763;48.780;9.212;2023-05-19T14:10:24;3.00;;;1.37;;
19257;SDS011;9763;48.780;9.212;2023-05-19T14:13:48;2.60;;;1.23;;
19257;SDS011;9763;48.780;9.212;2023-05-19T14:17:13;4.10;;;1.40;;
19257;SDS011;9763;48.780;9.212;2023-05-19T14:20:37;1.73;;;1.47;;
19257;SDS011;9763;48.780;9.212;2023-05-19T14:24:02;1.97;;;1.47;;
19257;SDS011;9763;48.780;9.212;2023-05-19T14:27:26;2.73;;;1.53;;
19257;SDS011;9763;48.780;9.212;2023-05-19T14:30:50;2.30;;;1.50;;
19257;SDS011;9763;48.780;9.212;2023-05-19T14:34:13;2.53;;;1.40;;
19257;SDS011;9763;48.780;9.212;2023-05-19T14:37:41;2.67;;;1.20;;
19257;SDS011;9763;48.780;9.212;2023-05-19T14:41:06;2.80;;;1.40;;
19257;SDS011;9763;48.780;9.212;2023-05-19T14:44:30;1.83;;;1.33;;
19257;SDS011;9763;48.780;9.212;2023-05-19T14:47:54;2.40;;;1.20;;
19257;SDS011;9763;48.780;9.212;2023-05-19T14:51:17;2.03;;;1.10;;
19257;SDS011;9763;48.780;9.212;2023-05-19T14:54:41;1.73;;;1.57;;
19257;SDS011;9763;48.780;9.212;2023-05-19T14:58:06;2.10;;;1.50;;
19257;SDS011;9763;48.780;9.212;2023-05-19T15:01:47;2.30;;;1.27;;
19257;SDS011;9763;48.780;9.212;2023-05-19T15:05:11;1.80;;;1.27;;
19257;SDS011;9763;48.780;9.212;2023-05-19T15:08:35;1.60;;;1.20;;
19257;SDS011;9763;48.780;9.212;2023-05-19T15:11:59;2.60;;;1.57;;
19257;SDS011;9763;48.780;9.212;2023-05-19T15:15:24;4.47;;;1.57;;
19257;SDS011;9763;48.780;9.212;2023-05-19T15:18:48;1.90;;;1.20;;
19257;SDS011;9763;48.780;9.212;2023-05-19T15:22:12;1.77;;;1.27;;
19257;SDS011;9763;48.780;9.212;2023-05-19T15:25:36;1.50;;;1.10;;
19257;SDS011;9763;48.780;9.212;2023-05-19T15:28:59;2.00;;;1.30;;
19257;SDS011;9763;48.780;9.212;2023-05-19T15:32:25;3.47;;;1.50;;
19257;SDS011;9763;48.780;9.212;2023-05-19T15:35:48;1.80;;;1.50;;
19257;SDS011;9763;48.780;9.212;2023-05-19T15:39:12;2.10;;;1.70;;
19257;SDS011;9763;48.780;9.212;2023-05-19T15:42:36;2.10;;;1.47;;
19257;SDS011;9763;48.780;9.212;2023-05-19T15:45:59;3.10;;;1.43;;
19257;SDS011;9763;48.780;9.212;2023-05-19T15:49:27;1.40;;;1.10;;
19257;SDS011;9763;48.780;9.212;2023-05-19T15:52:51;2.63;;;1.20;;
19257;SDS011;9763;48.780;9.212;2023-05-19T15:56:14;2.13;;;1.23;;
19257;SDS011;9763;48.780;9.212;2023-05-19T15:59:39;1.50;;;1.13;;
19257;SDS011;9763;48.780;9.212;2023-05-19T16:03:03;1.73;;;1.33;;
19257;SDS011;9763;48.780;9.212;2023-05-19T16:06:28;2.00;;;1.23;;
19257;SDS011;9763;48.780;9.212;2023-05-19T16:09:52;2.50;;;1.53;;
19257;SDS011;9763;48.780;9.212;2023-05-19T16:13:16;2.60;;;1.43;;
19257;SDS011;9763;48.780;9.212;2023-05-19T16:16:39;2.20;;;1.30;;
19257;SDS011;9763;48.780;9.212;2023-05-19T16:20:05;1.80;;;1.30;;
19257;SDS011;9763;48.780;9.212;2023-05-19T16:23:32;1.77;;;1.37;;
19257;SDS011;9763;48.780;9.212;2023-05-19T16:26:55;2.00;;;1.40;;
19257;SDS011;9763;48.780;9.212;2023-05-19T16:30:19;2.63;;;1.40;;
19257;SDS011;9763;48.780;9.212;2023-05-19T16:33:43;1.60;;;1.40;;
19257;SDS011;9763;48.780;9.212;2023-05-19T16:37:07;2.10;;;1.17;;
19257;SDS011;9763;48.780;9.212;2023-05-19T16:40:32;2.90;;;1.33;;
19257;SDS011;9763;48.780;9.212;2023-05-19T16:43:56;1.40;;;1.20;;
19257;SDS011;9763;48.780;9.212;2023-05-19T16:47:20;3.27;;;1.43;;
19257;SDS011;9763;48.780;9.212;2023-05-19T16:50:46;2.20;;;1.40;;
19257;SDS011;9763;48.780;9.212;2023-05-19T16:54:09;1.53;;;1.10;;
19257;SDS011;9763;48.780;9.212;2023-05-19T16:57:34;1.50;;;1.00;;
19257;SDS011;9763;48.780;9.212;2023-05-19T17:00:58;2.27;;;1.63;;
19257;SDS011;9763;48.780;9.212;2023-05-19T17:04:22;1.90;;;1.27;;
19257;SDS011;9763;48.780;9.212;2023-05-19T17:07:46;2.00;;;1.30;;
19257;SDS011;9763;48.780;9.212;2023-05-19T17:11:09;1.67;;;1.23;;
19257;SDS011;9763;48.780;9.212;2023-05-19T17:14:35;1.67;;;1.00;;
19257;SDS011;9763;48.780;9.212;2023-05-19T17:17:59;1.70;;;1.20;;
19257;SDS011;9763;48.780;9.212;2023-05-19T17:21:22;1.53;;;1.23;;
19257;SDS011;9763;48.780;9.212;2023-05-19T17:24:46;1.43;;;1.10;;
19257;SDS011;9763;48.780;9.212;2023-05-19T17:28:10;2.43;;;1.07;;
19257;SDS011;9763;48.780;9.212;2023-05-19T17:31:34;2.00;;;1.13;;
19257;SDS011;9763;48.780;9.212;2023-05-19T17:35:00;1.87;;;1.40;;
19257;SDS011;9763;48.780;9.212;2023-05-19T17:38:26;1.47;;;0.97;;
19257;SDS011;9763;48.780;9.212;2023-05-19T17:41:49;1.77;;;1.40;;
19257;SDS011;9763;48.780;9.212;2023-05-19T17:45:13;3.20;;;1.33;;
19257;SDS011;9763;48.780;9.212;2023-05-19T17:48:38;1.80;;;1.60;;
19257;SDS011;9763;48.780;9.212;2023-05-19T17:52:02;1.90;;;1.37;;
19257;SDS011;9763;48.780;9.212;2023-05-19T17:55:27;1.87;;;1.40;;
19257;SDS011;9763;48.780;9.212;2023-05-19T17:58:52;1.60;;;1.50;;
19257;SDS011;9763;48.780;9.212;2023-05-19T18:02:16;1.80;;;1.30;;
19257;SDS011;9763;48.780;9.212;2023-05-19T18:05:42;2.33;;;1.67;;
19257;SDS011;9763;48.780;9.212;2023-05-19T18:09:06;1.77;;;1.67;;
19257;SDS011;9763;48.780;9.212;2023-05-19T18:12:33;1.80;;;1.20;;
19257;SDS011;9763;48.780;9.212;2023-05-19T18:15:57;2.33;;;1.60;;
19257;SDS011;9763;48.780;9.212;2023-05-19T18:19:20;1.57;;;1.40;;
19257;SDS011;9763;48.780;9.212;2023-05-19T18:22:45;1.47;;;1.17;;
19257;SDS011;9763;48.780;9.212;2023-05-19T18:26:09;1.63;;;1.10;;
19257;SDS011;9763;48.780;9.212;2023-05-19T18:29:34;1.40;;;1.13;;
19257;SDS011;9763;48.780;9.212;2023-05-19T18:32:58;2.17;;;1.50;;
19257;SDS011;9763;48.780;9.212;2023-05-19T18:36:24;1.60;;;1.40;;
19257;SDS011;9763;48.780;9.212;2023-05-19T18:39:49;1.50;;;1.30;;
19257;SDS011;9763;48.780;9.212;2023-05-19T18:43:13;2.63;;;1.40;;
19257;SDS011;9763;48.780;9.212;2023-05-19T18:46:37;1.70;;;1.47;;
19257;SDS011;9763;48.780;9.212;2023-05-19T18:50:01;1.93;;;1.50;;
19257;SDS011;9763;48.780;9.212;2023-05-19T18:53:24;3.53;;;2.87;;
19257;SDS011;9763;48.780;9.212;2023-05-19T18:56:49;4.03;;;3.47;;
19257;SDS011;9763;48.780;9.212;2023-05-19T19:00:14;3.03;;;2.73;;
19257;SDS011;9763;48.780;9.212;2023-05-19T19:03:38;4.70;;;3.90;;
19257;SDS011;9763;48.780;9.212;2023-05-19T19:07:02;1.83;;;1.73;;
19257;SDS011;9763;48.780;9.212;2023-05-19T19:10:27;2.00;;;1.80;;
19257;SDS011;9763;48.780;9.212;2023-05-19T19:13:55;2.77;;;1.87;;
19257;SDS011;9763;48.780;9.212;2023-05-19T19:17:18;2.47;;;1.87;;
19257;SDS011;9763;48.780;9.212;2023-05-19T19:20:42;2.33;;;1.97;;
19257;SDS011;9763;48.780;9.212;2023-05-19T19:24:06;3.90;;;2.40;;
19257;SDS011;9763;48.780;9.212;2023-05-19T19:27:29;2.90;;;2.10;;
19257;SDS011;9763;48.780;9.212;2023-05-19T19:30:57;2.27;;;2.07;;
19257;SDS011;9763;48.780;9.212;2023-05-19T19:34:21;1.63;;;1.30;;
19257;SDS011;9763;48.780;9.212;2023-05-19T19:37:45;3.43;;;1.57;;
19257;SDS011;9763;48.780;9.212;2023-05-19T19:41:08;3.60;;;2.03;;
19257;SDS011;9763;48.780;9.212;2023-05-19T19:44:32;2.23;;;2.03;;
19257;SDS011;9763;48.780;9.212;2023-05-19T19:47:57;1.80;;;1.57;;
19257;SDS011;9763;48.780;9.212;2023-05-19T19:51:21;2.10;;;1.60;;
19257;SDS011;9763;48.780;9.212;2023-05-19T19:54:45;2.20;;;1.87;;
19257;SDS011;9763;48.780;9.212;2023-05-19T19:58:08;2.67;;;1.73;;
19257;SDS011;9763;48.780;9.212;2023-05-19T20:01:32;2.10;;;1.90;;
19257;SDS011;9763;48.780;9.212;2023-05-19T20:04:58;2.13;;;1.60;;
19257;SDS011;9763;48.780;9.212;2023-05-19T20:08:23;1.70;;;1.60;;
19257;SDS011;9763;48.780;9.212;2023-05-19T20:11:47;2.63;;;1.70;;
19257;SDS011;9763;48.780;9.212;2023-05-19T20:15:11;2.20;;;1.60;;
19257;SDS011;9763;48.780;9.212;2023-05-19T20:18:35;1.70;;;1.60;;
19257;SDS011;9763;48.780;9.212;2023-05-19T20:22:01;4.93;;;1.80;;
19257;SDS011;9763;48.780;9.212;2023-05-19T20:25:26;1.90;;;1.63;;
19257;SDS011;9763;48.780;9.212;2023-05-19T20:28:50;3.10;;;1.83;;
19257;SDS011;9763;48.780;9.212;2023-05-19T20:32:13;3.57;;;2.10;;
19257;SDS011;9763;48.780;9.212;2023-05-19T20:35:37;1.97;;;1.87;;
19257;SDS011;9763;48.780;9.212;2023-05-19T20:39:02;1.93;;;1.70;;
19257;SDS011;9763;48.780;9.212;2023-05-19T20:42:27;3.20;;;1.60;;
19257;SDS011;9763;48.780;9.212;2023-05-19T20:45:51;1.80;;;1.60;;
19257;SDS011;9763;48.780;9.212;2023-05-19T20:49:15;1.90;;;1.70;;
19257;SDS011;9763;48.780;9.212;2023-05-19T20:52:40;1.80;;;1.50;;
19257;SDS011;9763;48.780;9.212;2023-05-19T20:56:06;1.90;;;1.47;;